createdAt,value
2023-03-02T00:02:21.054Z,40.97
2023-03-02T00:04:56.818Z,32.97
2023-03-02T00:07:32.035Z,35.05
2023-03-02T00:09:59.339Z,30.98
2023-03-02T00:12:32.521Z,35.10
2023-03-02T00:14:59.276Z,36.15
2023-03-02T00:17:29.076Z,45.72
2023-03-02T00:20:11.544Z,32.55
2023-03-02T00:22:39.475Z,41.25
2023-03-02T00:25:06.949Z,45.03
2023-03-02T00:27:33.686Z,49.08
2023-03-02T00:30:00.728Z,45.60
2023-03-02T00:32:27.623Z,41.05
2023-03-02T00:34:54.407Z,44.25
2023-03-02T00:37:21.142Z,51.17
2023-03-02T00:39:47.992Z,45.40
2023-03-02T00:42:14.728Z,44.92
2023-03-02T00:44:41.470Z,41.30
2023-03-02T00:47:08.175Z,47.85
2023-03-02T00:49:35.043Z,46.63
2023-03-02T00:52:01.895Z,49.00
2023-03-02T00:54:28.735Z,43.97
2023-03-02T00:56:55.783Z,49.60
2023-03-02T00:59:28.837Z,46.22
2023-03-02T01:02:03.049Z,45.90
2023-03-02T01:04:36.319Z,46.58
2023-03-02T01:07:06.027Z,43.45
2023-03-02T01:09:33.167Z,44.15
2023-03-02T01:12:00.176Z,49.88
2023-03-02T01:14:27.648Z,50.10
2023-03-02T01:16:54.483Z,49.65
2023-03-02T01:19:21.241Z,48.90
2023-03-02T01:21:48.111Z,50.78
2023-03-02T01:24:14.936Z,51.10
2023-03-02T01:26:41.766Z,50.53
2023-03-02T01:29:08.573Z,44.72
2023-03-02T01:31:35.395Z,45.15
2023-03-02T01:34:02.167Z,54.03
2023-03-02T01:36:28.929Z,54.10
2023-03-02T01:38:55.623Z,50.28
2023-03-02T01:41:22.399Z,50.80
2023-03-02T01:43:49.143Z,52.25
2023-03-02T01:46:35.211Z,58.90
2023-03-02T01:49:06.260Z,49.13
2023-03-02T01:52:00.254Z,48.92
2023-03-02T01:54:27.147Z,49.83
2023-03-02T01:57:02.028Z,47.85
2023-03-02T01:59:31.503Z,48.70
2023-03-02T02:02:01.675Z,54.00
2023-03-02T02:04:31.058Z,55.25
2023-03-02T02:07:03.692Z,55.90
2023-03-02T02:09:34.703Z,51.42
2023-03-02T02:12:02.077Z,54.20
2023-03-02T02:14:29.573Z,54.55
2023-03-02T02:16:56.646Z,54.67
2023-03-02T02:19:46.416Z,49.67
2023-03-02T02:22:17.465Z,46.63
2023-03-02T02:24:48.482Z,50.65
2023-03-02T02:27:15.494Z,51.95
2023-03-02T02:29:49.428Z,50.50
2023-03-02T02:32:20.446Z,53.08
2023-03-02T02:34:55.366Z,51.85
2023-03-02T02:37:31.849Z,57.50
2023-03-02T02:40:00.651Z,51.55
2023-03-02T02:42:34.477Z,52.67
2023-03-02T02:45:05.311Z,34.28
2023-03-02T02:47:32.624Z,61.88
2023-03-02T02:49:59.574Z,56.80
2023-03-02T02:52:29.112Z,60.03
2023-03-02T02:54:57.853Z,62.25
2023-03-02T02:57:28.110Z,62.75
2023-03-02T02:59:58.630Z,55.90
2023-03-02T03:02:28.747Z,65.37
2023-03-02T03:05:02.990Z,66.68
2023-03-02T03:07:32.877Z,58.80
2023-03-02T03:10:11.302Z,66.72
2023-03-02T03:12:40.009Z,67.80
2023-03-02T03:15:08.684Z,63.00
2023-03-02T03:17:35.763Z,60.92
2023-03-02T03:20:06.368Z,57.63
2023-03-02T03:22:37.646Z,59.15
2023-03-02T03:25:06.200Z,62.45
2023-03-02T03:27:33.016Z,60.73
2023-03-02T03:30:02.039Z,60.40
2023-03-02T03:32:35.441Z,58.10
2023-03-02T03:35:08.532Z,60.22
2023-03-02T03:37:36.027Z,53.78
2023-03-02T03:40:03.649Z,55.10
2023-03-02T03:42:31.964Z,50.22
2023-03-02T03:44:59.450Z,51.85
2023-03-02T03:47:26.486Z,54.55
2023-03-02T03:49:53.356Z,60.15
2023-03-02T03:52:30.410Z,44.60
2023-03-02T03:55:03.838Z,46.72
2023-03-02T03:57:30.669Z,48.00
2023-03-02T03:59:57.804Z,45.20
2023-03-02T04:02:24.822Z,51.75
2023-03-02T04:04:51.813Z,48.00
2023-03-02T04:07:19.760Z,49.30
2023-03-02T04:09:47.032Z,49.40
2023-03-02T04:12:15.317Z,50.08
2023-03-02T04:14:46.930Z,51.72
2023-03-02T04:17:13.846Z,50.53
2023-03-02T04:19:45.707Z,48.00
2023-03-02T04:22:12.600Z,51.30
2023-03-02T04:24:39.602Z,49.88
2023-03-02T04:27:06.389Z,60.90
2023-03-02T04:29:35.407Z,60.47
2023-03-02T04:32:04.112Z,58.35
2023-03-02T04:34:33.266Z,61.75
2023-03-02T04:37:00.386Z,57.38
2023-03-02T04:39:27.457Z,55.08
2023-03-02T04:41:54.686Z,63.23
2023-03-02T04:44:21.813Z,56.38
2023-03-02T04:46:49.141Z,58.72
2023-03-02T04:49:18.124Z,58.28
2023-03-02T04:51:47.168Z,60.55
2023-03-02T04:54:18.215Z,57.80
2023-03-02T04:56:48.592Z,54.38
2023-03-02T04:59:24.335Z,68.88
2023-03-02T05:01:51.716Z,70.55
2023-03-02T05:04:19.089Z,67.18
2023-03-02T05:06:45.957Z,75.20
2023-03-02T05:09:12.895Z,68.97
2023-03-02T05:11:40.186Z,73.60
2023-03-02T05:14:10.442Z,76.28
2023-03-02T05:16:39.997Z,73.55
2023-03-02T05:19:09.811Z,76.37
2023-03-02T05:21:36.588Z,81.03
2023-03-02T05:24:04.097Z,76.85
2023-03-02T05:26:31.409Z,77.57
2023-03-02T05:28:58.520Z,72.13
2023-03-02T05:31:38.915Z,74.27
2023-03-02T05:34:08.201Z,72.68
2023-03-02T05:36:36.124Z,77.30
2023-03-02T05:39:03.923Z,84.68
2023-03-02T05:41:31.114Z,76.95
2023-03-02T05:43:57.999Z,87.63
2023-03-02T05:46:24.961Z,91.90
2023-03-02T05:48:52.116Z,84.57
2023-03-02T05:51:19.106Z,79.78
2023-03-02T05:53:45.952Z,74.32
2023-03-02T05:56:12.790Z,75.20
2023-03-02T05:58:39.599Z,78.25
2023-03-02T06:01:13.578Z,78.60
2023-03-02T06:03:42.064Z,69.20
2023-03-02T06:06:09.005Z,74.63
2023-03-02T06:08:41.005Z,75.50
2023-03-02T06:11:08.880Z,72.95
2023-03-02T06:13:36.281Z,70.05
2023-03-02T06:16:03.669Z,74.28
2023-03-02T06:18:30.652Z,65.53
2023-03-02T06:20:57.757Z,77.57
2023-03-02T06:23:24.654Z,79.65
2023-03-02T06:25:51.667Z,78.20
2023-03-02T06:28:22.081Z,77.75
2023-03-02T06:30:49.763Z,76.45
2023-03-02T06:33:21.434Z,56.60
2023-03-02T06:35:49.406Z,62.10
2023-03-02T06:38:16.384Z,77.53
2023-03-02T06:40:43.217Z,71.43
2023-03-02T06:43:10.271Z,78.55
2023-03-02T06:45:37.886Z,79.43
2023-03-02T06:48:05.513Z,78.28
2023-03-02T06:50:33.149Z,72.65
2023-03-02T06:52:59.939Z,63.63
2023-03-02T06:55:26.970Z,66.88
2023-03-02T06:57:53.954Z,68.20
2023-03-02T07:00:26.296Z,77.40
2023-03-02T07:02:55.924Z,63.72
2023-03-02T07:05:24.381Z,71.95
2023-03-02T07:07:51.587Z,73.22
2023-03-02T07:10:18.672Z,74.07
2023-03-02T07:12:45.530Z,60.65
2023-03-02T07:15:14.211Z,75.80
2023-03-02T07:17:43.035Z,66.03
2023-03-02T07:20:11.841Z,55.38
2023-03-02T07:22:38.765Z,54.05
2023-03-02T07:25:06.329Z,48.25
2023-03-02T07:27:33.149Z,60.60
2023-03-02T07:30:00.162Z,67.50
2023-03-02T07:32:27.065Z,59.25
2023-03-02T07:34:54.126Z,67.40
2023-03-02T07:37:20.855Z,47.47
2023-03-02T07:39:49.173Z,68.82
2023-03-02T07:42:16.960Z,51.17
2023-03-02T07:44:46.814Z,48.45
2023-03-02T07:47:13.755Z,74.65
2023-03-02T07:49:40.645Z,68.60
2023-03-02T07:52:07.665Z,62.05
2023-03-02T07:54:34.432Z,54.08
2023-03-02T07:57:01.260Z,60.85
2023-03-02T07:59:28.914Z,44.15
2023-03-02T08:01:56.586Z,60.97
2023-03-02T08:04:23.861Z,49.85
2023-03-02T08:06:50.938Z,53.78
2023-03-02T08:09:18.123Z,65.03
2023-03-02T08:11:45.053Z,51.00
2023-03-02T08:14:11.928Z,63.75
2023-03-02T08:16:39.573Z,60.25
2023-03-02T08:19:07.486Z,66.00
2023-03-02T08:21:34.520Z,63.15
2023-03-02T08:24:01.531Z,45.73
2023-03-02T08:26:28.505Z,56.25
2023-03-02T08:28:55.438Z,45.85
2023-03-02T08:31:22.422Z,49.40
2023-03-02T08:33:49.190Z,48.88
2023-03-02T08:36:18.762Z,45.97
2023-03-02T08:38:46.928Z,46.63
2023-03-02T08:41:16.719Z,45.58
2023-03-02T08:43:43.680Z,45.15
2023-03-02T08:46:12.349Z,59.92
2023-03-02T08:48:39.348Z,45.70
2023-03-02T08:51:07.478Z,51.78
2023-03-02T08:53:37.897Z,49.60
2023-03-02T08:56:07.373Z,47.67
2023-03-02T08:58:34.183Z,55.80
2023-03-02T09:01:01.105Z,57.17
2023-03-02T09:03:27.993Z,49.53
2023-03-02T09:05:54.727Z,46.00
2023-03-02T09:08:21.602Z,51.13
2023-03-02T09:10:48.392Z,47.70
2023-03-02T09:13:15.150Z,54.25
2023-03-02T09:15:42.111Z,56.58
2023-03-02T09:18:08.975Z,56.47
2023-03-02T09:20:35.878Z,60.10
2023-03-02T09:23:02.654Z,53.67
2023-03-02T09:25:29.476Z,43.85
2023-03-02T09:27:56.410Z,53.03
2023-03-02T09:30:23.270Z,53.08
2023-03-02T09:32:50.225Z,53.83
2023-03-02T09:35:17.214Z,54.30
2023-03-02T09:37:44.666Z,56.40
2023-03-02T09:40:30.769Z,55.67
2023-03-02T09:43:04.953Z,57.00
2023-03-02T09:46:08.892Z,48.08
2023-03-02T09:48:38.731Z,58.05
2023-03-02T09:51:24.105Z,45.58
2023-03-02T09:54:20.604Z,59.92
2023-03-02T09:56:50.594Z,57.90
2023-03-02T09:59:29.267Z,50.63
2023-03-02T10:02:18.049Z,50.13
2023-03-02T10:04:49.164Z,43.90
2023-03-02T10:07:36.863Z,54.60
2023-03-02T10:10:09.587Z,45.20
2023-03-02T10:12:42.425Z,50.92
2023-03-02T10:15:23.581Z,46.35
2023-03-02T10:18:18.923Z,41.83
2023-03-02T10:20:57.559Z,43.58
2023-03-02T10:23:38.345Z,55.35
2023-03-02T10:26:26.392Z,44.58
2023-03-02T10:29:10.897Z,52.35
2023-03-02T10:31:40.335Z,51.88
2023-03-02T10:34:11.644Z,54.28
2023-03-02T10:36:40.910Z,41.65
2023-03-02T10:39:13.953Z,45.08
2023-03-02T10:41:53.115Z,48.22
2023-03-02T10:44:25.544Z,40.80
2023-03-02T10:46:53.893Z,44.00
2023-03-02T10:49:36.002Z,49.47
2023-03-02T10:52:26.283Z,48.10
2023-03-02T10:55:16.292Z,41.53
2023-03-02T10:57:44.743Z,40.90
2023-03-02T11:00:17.292Z,45.75
2023-03-02T11:03:02.767Z,42.28
2023-03-02T11:05:35.144Z,42.30
2023-03-02T11:08:03.904Z,37.83
2023-03-02T11:10:34.276Z,43.75
2023-03-02T11:13:02.606Z,53.92
2023-03-02T11:15:51.254Z,49.10
2023-03-02T11:18:23.904Z,46.85
2023-03-02T11:20:54.934Z,42.25
2023-03-02T11:23:35.275Z,42.47
2023-03-02T11:26:33.988Z,42.70
2023-03-02T11:29:20.986Z,42.42
2023-03-02T11:32:03.410Z,49.35
2023-03-02T11:34:36.305Z,47.83
2023-03-02T11:37:22.174Z,45.85
2023-03-02T11:39:56.160Z,41.75
2023-03-02T11:42:26.085Z,49.47
2023-03-02T11:44:52.860Z,49.58
2023-03-02T11:47:20.456Z,39.72
2023-03-02T11:49:54.332Z,44.55
2023-03-02T11:52:28.050Z,45.67
2023-03-02T11:55:00.255Z,48.17
2023-03-02T11:57:39.818Z,38.33
2023-03-02T12:00:18.975Z,48.08
2023-03-02T12:02:45.761Z,44.45
2023-03-02T12:05:27.850Z,39.63
2023-03-02T12:07:59.267Z,41.95
2023-03-02T12:10:44.263Z,45.50
2023-03-02T12:13:34.541Z,46.55
2023-03-02T12:16:01.851Z,46.40
2023-03-02T12:18:49.089Z,51.85
2023-03-02T12:21:24.145Z,45.95
2023-03-02T12:23:51.063Z,48.30
2023-03-02T12:26:20.899Z,43.95
2023-03-02T12:29:13.906Z,42.90
2023-03-02T12:31:53.179Z,43.60
2023-03-02T12:34:43.116Z,38.72
2023-03-02T12:37:18.175Z,38.83
2023-03-02T12:40:26.099Z,44.42
2023-03-02T12:43:17.802Z,45.42
2023-03-02T12:45:44.605Z,42.05
2023-03-02T12:48:20.443Z,41.45
2023-03-02T12:50:48.467Z,40.85
2023-03-02T12:53:19.508Z,53.60
2023-03-02T12:55:46.695Z,35.33
2023-03-02T12:58:19.347Z,41.58
2023-03-02T13:01:01.009Z,36.58
2023-03-02T13:03:30.294Z,36.10
2023-03-02T13:06:13.842Z,48.30
2023-03-02T13:08:44.195Z,46.28
2023-03-02T13:11:11.538Z,41.75
2023-03-02T13:13:42.612Z,41.67
2023-03-02T13:16:24.979Z,41.78
2023-03-02T13:18:57.021Z,43.20
2023-03-02T13:21:32.888Z,41.47
2023-03-02T13:24:00.432Z,34.47
2023-03-02T13:26:31.324Z,47.13
2023-03-02T13:29:21.178Z,38.20
2023-03-02T13:31:48.133Z,38.70
2023-03-02T13:34:31.008Z,42.38
2023-03-02T13:36:57.866Z,37.53
2023-03-02T13:39:31.650Z,41.78
2023-03-02T13:42:00.779Z,36.28
2023-03-02T13:44:29.747Z,48.17
2023-03-02T13:46:57.348Z,37.40
2023-03-02T13:49:34.199Z,35.20
2023-03-02T13:52:17.447Z,36.70
2023-03-02T13:54:47.209Z,37.50
2023-03-02T13:57:18.798Z,33.00
2023-03-02T13:59:45.532Z,39.17
2023-03-02T14:02:27.016Z,33.17
2023-03-02T14:04:54.692Z,38.53
2023-03-02T14:07:21.527Z,32.30
2023-03-02T14:09:48.915Z,34.50
2023-03-02T14:12:24.754Z,36.42
2023-03-02T14:14:55.817Z,37.95
2023-03-02T14:17:24.850Z,31.38
2023-03-02T14:19:55.332Z,36.05
2023-03-02T14:22:25.133Z,42.03
2023-03-02T14:24:52.167Z,41.03
2023-03-02T14:27:19.479Z,37.85
2023-03-02T14:29:47.446Z,36.50
2023-03-02T14:32:15.418Z,35.05
2023-03-02T14:34:42.544Z,36.05
2023-03-02T14:37:14.109Z,36.00
2023-03-02T14:39:43.740Z,32.60
2023-03-02T14:42:14.211Z,36.15
2023-03-02T14:44:42.519Z,33.83
2023-03-02T14:47:10.424Z,34.38
2023-03-02T14:49:39.187Z,36.58
2023-03-02T14:52:13.286Z,32.15
2023-03-02T14:54:46.465Z,31.73
2023-03-02T14:57:25.464Z,32.00
2023-03-02T14:59:53.529Z,34.65
2023-03-02T15:02:25.983Z,35.47
2023-03-02T15:04:56.617Z,25.70
2023-03-02T15:07:25.248Z,35.28
2023-03-02T15:09:52.056Z,34.88
2023-03-02T15:12:18.759Z,27.88
2023-03-02T15:14:45.484Z,31.42
2023-03-02T15:17:12.263Z,32.93
2023-03-02T15:19:39.073Z,27.73
2023-03-02T15:22:05.815Z,31.98
2023-03-02T15:24:33.513Z,29.80
2023-03-02T15:27:00.694Z,26.70
2023-03-02T15:29:27.595Z,28.48
2023-03-02T15:31:54.487Z,23.67
2023-03-02T15:34:21.352Z,24.90
2023-03-02T15:36:48.148Z,29.55
2023-03-02T15:39:16.465Z,32.97
2023-03-02T15:41:43.241Z,25.55
2023-03-02T15:44:22.919Z,25.77
2023-03-02T15:46:54.572Z,25.77
2023-03-02T15:49:24.451Z,25.30
2023-03-02T15:51:52.134Z,26.02
2023-03-02T15:54:19.406Z,27.77
2023-03-02T15:56:51.905Z,28.50
2023-03-02T15:59:23.415Z,24.00
2023-03-02T16:01:50.235Z,29.27
2023-03-02T16:04:17.368Z,25.67
2023-03-02T16:06:44.521Z,30.42
2023-03-02T16:09:11.407Z,26.08
2023-03-02T16:11:38.280Z,24.77
2023-03-02T16:14:05.120Z,25.50
2023-03-02T16:16:32.091Z,26.00
2023-03-02T16:18:59.171Z,23.88
2023-03-02T16:21:28.627Z,24.58
2023-03-02T16:24:02.984Z,26.20
2023-03-02T16:26:32.104Z,23.60
2023-03-02T16:28:59.869Z,25.83
2023-03-02T16:31:28.031Z,22.67
2023-03-02T16:33:56.325Z,31.08
2023-03-02T16:36:23.493Z,21.63
2023-03-02T16:38:50.369Z,23.10
2023-03-02T16:41:22.644Z,19.38
2023-03-02T16:43:55.090Z,24.05
2023-03-02T16:46:23.740Z,21.63
2023-03-02T16:48:51.075Z,25.73
2023-03-02T16:51:19.039Z,24.63
2023-03-02T16:53:46.307Z,18.83
2023-03-02T16:56:14.273Z,24.48
2023-03-02T16:58:42.202Z,25.10
2023-03-02T17:01:13.703Z,25.55
2023-03-02T17:03:40.952Z,18.33
2023-03-02T17:06:09.416Z,20.95
2023-03-02T17:08:37.692Z,25.35
2023-03-02T17:11:05.848Z,18.90
2023-03-02T17:13:33.820Z,22.73
2023-03-02T17:16:01.423Z,20.58
2023-03-02T17:18:29.606Z,23.70
2023-03-02T17:21:00.719Z,21.75
2023-03-02T17:23:28.509Z,20.00
2023-03-02T17:25:56.328Z,19.65
2023-03-02T17:28:23.795Z,22.63
2023-03-02T17:30:51.677Z,22.25
2023-03-02T17:33:18.944Z,25.15
2023-03-02T17:35:46.565Z,22.85
2023-03-02T17:38:14.789Z,14.40
2023-03-02T17:40:42.623Z,21.23
2023-03-02T17:43:09.882Z,23.38
2023-03-02T17:45:36.905Z,21.40
2023-03-02T17:48:05.496Z,25.88
2023-03-02T17:50:32.853Z,21.55
2023-03-02T17:53:00.994Z,24.85
2023-03-02T17:55:28.073Z,28.27
2023-03-02T17:57:56.285Z,24.67
2023-03-02T18:00:24.437Z,23.10
2023-03-02T18:02:52.764Z,25.15
2023-03-02T18:05:20.966Z,20.00
2023-03-02T18:07:47.972Z,23.02
2023-03-02T18:10:15.652Z,24.27
2023-03-02T18:12:43.007Z,24.20
2023-03-02T18:15:12.370Z,25.52
2023-03-02T18:17:39.802Z,24.23
2023-03-02T18:20:07.726Z,27.88
2023-03-02T18:22:35.048Z,32.08
2023-03-02T18:25:02.342Z,20.40
2023-03-02T18:27:30.230Z,22.95
2023-03-02T18:29:57.638Z,27.48
2023-03-02T18:32:25.011Z,27.30
2023-03-02T18:34:52.340Z,24.80
2023-03-02T18:37:20.136Z,26.60
2023-03-02T18:39:47.184Z,34.58
2023-03-02T18:42:13.938Z,28.80
2023-03-02T18:44:40.743Z,29.75
2023-03-02T18:47:07.738Z,30.52
2023-03-02T18:49:34.926Z,29.55
2023-03-02T18:52:05.808Z,27.80
2023-03-02T18:54:32.845Z,27.30
2023-03-02T18:57:01.660Z,29.92
2023-03-02T18:59:29.065Z,29.30
2023-03-02T19:01:56.023Z,31.77
2023-03-02T19:04:26.426Z,29.52
2023-03-02T19:06:55.636Z,31.25
2023-03-02T19:09:23.321Z,28.70
2023-03-02T19:11:50.146Z,32.72
2023-03-02T19:14:17.032Z,27.95
2023-03-02T19:16:44.125Z,26.75
2023-03-02T19:19:11.082Z,27.00
2023-03-02T19:21:37.860Z,32.28
2023-03-02T19:24:05.235Z,30.42
2023-03-02T19:26:32.115Z,30.10
2023-03-02T19:28:58.922Z,28.88
2023-03-02T19:31:27.098Z,28.20
2023-03-02T19:33:54.542Z,30.42
2023-03-02T19:36:21.352Z,19.38
2023-03-02T19:38:48.193Z,31.05
2023-03-02T19:41:17.869Z,33.28
2023-03-02T19:43:46.184Z,32.20
2023-03-02T19:46:15.594Z,28.20
2023-03-02T19:48:42.521Z,33.03
2023-03-02T19:51:11.171Z,31.38
2023-03-02T19:53:39.218Z,31.50
2023-03-02T19:56:09.186Z,31.90
2023-03-02T19:58:36.386Z,31.92
2023-03-02T20:01:04.185Z,34.05
2023-03-02T20:03:31.522Z,33.25
2023-03-02T20:05:59.559Z,32.05
2023-03-02T20:08:26.688Z,30.13
2023-03-02T20:10:53.975Z,34.58
2023-03-02T20:13:20.854Z,39.03
2023-03-02T20:15:48.139Z,43.75
2023-03-02T20:18:20.035Z,50.60
2023-03-02T20:20:48.406Z,40.95
2023-03-02T20:23:15.798Z,52.03
2023-03-02T20:25:42.874Z,59.08
2023-03-02T20:28:12.360Z,69.18
2023-03-02T20:30:44.298Z,69.28
2023-03-02T20:33:12.804Z,60.25
2023-03-02T20:35:41.638Z,55.90
2023-03-02T20:38:15.088Z,45.30
2023-03-02T20:40:41.923Z,40.92
2023-03-02T20:43:08.757Z,43.58
2023-03-02T20:45:35.781Z,38.28
2023-03-02T20:48:03.160Z,35.42
2023-03-02T20:50:32.899Z,31.42
2023-03-02T20:53:01.002Z,35.08
2023-03-02T20:55:28.167Z,31.02
2023-03-02T20:57:56.023Z,37.72
2023-03-02T21:00:26.259Z,29.70
2023-03-02T21:02:53.189Z,28.75
2023-03-02T21:05:21.308Z,29.65
2023-03-02T21:07:48.304Z,28.95
2023-03-02T21:10:19.345Z,30.27
2023-03-02T21:12:48.270Z,29.45
2023-03-02T21:15:16.312Z,29.23
2023-03-02T21:17:43.245Z,33.00
2023-03-02T21:20:14.059Z,30.17
2023-03-02T21:22:41.504Z,31.08
2023-03-02T21:25:09.343Z,32.67
2023-03-02T21:27:37.187Z,29.83
2023-03-02T21:30:09.484Z,31.02
2023-03-02T21:32:36.382Z,31.25
2023-03-02T21:35:03.304Z,34.15
2023-03-02T21:37:30.144Z,34.08
2023-03-02T21:39:58.922Z,29.55
2023-03-02T21:42:25.753Z,34.80
2023-03-02T21:44:52.456Z,32.53
2023-03-02T21:47:19.311Z,31.55
2023-03-02T21:49:46.971Z,33.17
2023-03-02T21:52:13.905Z,30.15
2023-03-02T21:54:40.712Z,32.03
2023-03-02T21:57:09.600Z,29.08
2023-03-02T21:59:37.314Z,26.00
2023-03-02T22:02:05.092Z,27.98
2023-03-02T22:04:32.665Z,26.85
2023-03-02T22:07:00.916Z,28.65
2023-03-02T22:09:27.735Z,23.85
2023-03-02T22:11:54.470Z,26.65
2023-03-02T22:14:21.300Z,27.45
2023-03-02T22:16:48.260Z,26.80
2023-03-02T22:19:29.898Z,30.67
2023-03-02T22:22:03.318Z,29.17
2023-03-02T22:24:32.305Z,26.30
2023-03-02T22:27:05.279Z,23.95
2023-03-02T22:29:43.885Z,28.75
2023-03-02T22:32:27.569Z,26.98
2023-03-02T22:34:59.712Z,25.70
2023-03-02T22:37:33.211Z,22.67
2023-03-02T22:40:25.430Z,29.33
2023-03-02T22:43:06.288Z,23.40
2023-03-02T22:45:33.178Z,23.65
2023-03-02T22:48:00.267Z,31.73
2023-03-02T22:50:30.081Z,35.55
2023-03-02T22:53:00.706Z,31.85
2023-03-02T22:55:38.550Z,28.75
2023-03-02T22:58:32.428Z,29.00
2023-03-02T23:01:01.505Z,27.63
2023-03-02T23:03:40.815Z,33.03
2023-03-02T23:06:28.329Z,29.52
2023-03-02T23:09:01.117Z,27.90
2023-03-02T23:11:29.550Z,29.38
2023-03-02T23:13:56.327Z,31.73
2023-03-02T23:16:28.515Z,34.05
2023-03-02T23:18:59.405Z,35.27
2023-03-02T23:21:28.502Z,32.05
2023-03-02T23:23:56.018Z,33.67
2023-03-02T23:26:22.813Z,31.35
2023-03-02T23:28:50.738Z,32.97
2023-03-02T23:31:18.479Z,28.33
2023-03-02T23:33:45.945Z,25.75
2023-03-02T23:36:13.320Z,28.90
2023-03-02T23:38:40.698Z,28.50
2023-03-02T23:41:08.334Z,26.42
2023-03-02T23:43:35.861Z,26.13
2023-03-02T23:46:02.714Z,27.05
2023-03-02T23:48:29.560Z,28.90
2023-03-02T23:50:56.637Z,26.52
2023-03-02T23:53:23.622Z,25.92
2023-03-02T23:55:52.438Z,25.33
2023-03-02T23:58:20.020Z,22.38
